createdAt,value
2023-09-06T00:01:11.695Z,6.27
2023-09-06T00:03:39.186Z,5.50
2023-09-06T00:06:06.708Z,6.40
2023-09-06T00:08:35.467Z,6.30
2023-09-06T00:11:05.698Z,5.70
2023-09-06T00:13:33.592Z,5.67
2023-09-06T00:16:01.517Z,6.83
2023-09-06T00:18:29.105Z,6.97
2023-09-06T00:20:58.714Z,7.03
2023-09-06T00:23:26.331Z,6.23
2023-09-06T00:25:56.350Z,6.10
2023-09-06T00:28:26.819Z,6.00
2023-09-06T00:30:58.409Z,5.93
2023-09-06T00:40:24.509Z,6.70
2023-09-06T00:43:00.784Z,6.10
2023-09-06T00:45:31.230Z,7.10
2023-09-06T00:47:58.582Z,6.67
2023-09-06T00:50:27.149Z,7.10
2023-09-06T00:52:54.287Z,6.47
2023-09-06T00:55:21.509Z,6.10
2023-09-06T00:58:07.551Z,5.83
2023-09-06T01:00:36.494Z,5.83
2023-09-06T01:03:05.340Z,7.00
2023-09-06T01:05:33.291Z,6.10
2023-09-06T01:08:02.378Z,6.80
2023-09-06T01:10:30.746Z,7.00
2023-09-06T01:12:58.377Z,7.13
2023-09-06T01:15:25.836Z,6.53
2023-09-06T01:17:53.178Z,6.43
2023-09-06T01:20:25.111Z,7.43
2023-09-06T01:23:11.552Z,7.37
2023-09-06T01:25:38.846Z,6.87
2023-09-06T01:28:06.481Z,7.30
2023-09-06T01:30:33.903Z,7.37
2023-09-06T01:33:01.336Z,6.20
2023-09-06T01:35:28.488Z,6.10
2023-09-06T01:37:55.832Z,7.20
2023-09-06T01:40:27.425Z,7.40
2023-09-06T01:42:55.267Z,6.83
2023-09-06T01:45:22.643Z,6.93
2023-09-06T01:47:50.047Z,6.63
2023-09-06T01:50:21.194Z,7.10
2023-09-06T01:52:48.852Z,7.63
2023-09-06T01:55:16.213Z,6.80
2023-09-06T01:57:43.596Z,5.70
2023-09-06T02:00:20.793Z,7.07
2023-09-06T02:02:48.110Z,6.70
2023-09-06T02:05:15.456Z,7.00
2023-09-06T02:07:43.516Z,7.10
2023-09-06T02:10:11.142Z,7.53
2023-09-06T02:12:38.984Z,7.73
2023-09-06T02:15:06.989Z,7.57
2023-09-06T02:17:34.790Z,6.90
2023-09-06T02:20:14.714Z,7.87
2023-09-06T02:22:42.228Z,7.53
2023-09-06T02:25:10.423Z,7.40
2023-09-06T02:27:38.239Z,8.20
2023-09-06T02:30:07.405Z,7.90
2023-09-06T02:32:35.397Z,6.70
2023-09-06T02:35:02.889Z,6.83
2023-09-06T02:37:30.081Z,6.80
2023-09-06T02:39:57.212Z,7.60
2023-09-06T02:42:24.580Z,7.00
2023-09-06T02:44:55.101Z,6.90
2023-09-06T02:47:29.743Z,7.50
2023-09-06T02:49:57.108Z,7.93
2023-09-06T02:52:31.687Z,8.20
2023-09-06T02:54:59.283Z,8.20
2023-09-06T02:57:27.361Z,7.63
2023-09-06T02:59:55.164Z,8.20
2023-09-06T03:02:23.003Z,9.30
2023-09-06T03:04:56.421Z,7.43
2023-09-06T03:07:23.990Z,7.30
2023-09-06T03:09:51.586Z,8.60
2023-09-06T03:12:18.843Z,7.40
2023-09-06T03:14:48.392Z,7.80
2023-09-06T03:17:23.930Z,8.23
2023-09-06T03:19:55.157Z,8.20
2023-09-06T03:22:29.052Z,8.60
2023-09-06T03:24:56.574Z,8.00
2023-09-06T03:27:23.973Z,7.90
2023-09-06T03:29:52.760Z,8.10
2023-09-06T03:32:20.166Z,7.23
2023-09-06T03:34:47.631Z,7.83
2023-09-06T03:37:19.843Z,8.97
2023-09-06T03:39:48.866Z,7.57
2023-09-06T03:42:16.630Z,8.40
2023-09-06T03:44:47.738Z,7.63
2023-09-06T03:47:16.269Z,8.80
2023-09-06T03:49:44.362Z,7.57
2023-09-06T03:52:17.665Z,7.43
2023-09-06T03:54:45.044Z,8.13
2023-09-06T03:57:14.466Z,7.10
2023-09-06T03:59:42.145Z,7.40
2023-09-06T04:04:41.818Z,7.40
2023-09-06T04:07:09.146Z,8.57
2023-09-06T04:09:39.453Z,8.33
2023-09-06T04:12:10.181Z,8.67
2023-09-06T04:14:39.875Z,8.50
2023-09-06T04:17:08.474Z,8.90
2023-09-06T04:19:35.749Z,8.17
2023-09-06T04:22:03.287Z,8.03
2023-09-06T04:24:30.456Z,8.63
2023-09-06T04:26:57.597Z,8.57
2023-09-06T04:29:25.558Z,8.30
2023-09-06T04:31:53.045Z,7.47
2023-09-06T04:34:20.518Z,7.77
2023-09-06T04:36:47.801Z,7.90
2023-09-06T04:39:14.934Z,8.57
2023-09-06T04:41:42.103Z,7.23
2023-09-06T04:44:11.506Z,7.70
2023-09-06T04:46:38.890Z,8.20
2023-09-06T04:49:06.192Z,8.00
2023-09-06T04:51:33.791Z,8.90
2023-09-06T04:54:01.502Z,8.53
2023-09-06T04:56:28.755Z,8.47
2023-09-06T04:58:57.054Z,8.87
2023-09-06T05:01:24.244Z,8.40
2023-09-06T05:03:51.519Z,8.47
2023-09-06T05:06:19.097Z,10.17
2023-09-06T05:08:46.220Z,9.30
2023-09-06T05:11:16.567Z,10.00
2023-09-06T05:13:43.677Z,9.37
2023-09-06T05:16:10.858Z,9.97
2023-09-06T05:18:38.204Z,10.83
2023-09-06T05:21:07.023Z,10.30
2023-09-06T05:23:34.657Z,10.80
2023-09-06T05:26:01.959Z,10.10
2023-09-06T05:28:29.521Z,10.53
2023-09-06T05:30:57.029Z,11.20
2023-09-06T05:33:24.353Z,9.30
2023-09-06T05:35:53.806Z,11.87
2023-09-06T05:38:21.140Z,9.50
2023-09-06T05:40:49.692Z,9.83
2023-09-06T05:43:17.045Z,9.40
2023-09-06T05:45:44.177Z,9.17
2023-09-06T05:48:12.625Z,9.10
2023-09-06T05:50:40.104Z,10.80
2023-09-06T05:53:07.307Z,9.30
2023-09-06T05:55:34.511Z,8.77
2023-09-06T05:58:01.627Z,9.13
2023-09-06T06:00:30.227Z,9.23
2023-09-06T06:02:59.700Z,8.63
2023-09-06T06:05:27.033Z,9.17
2023-09-06T06:07:54.151Z,8.97
2023-09-06T06:10:21.323Z,8.67
2023-09-06T06:12:48.543Z,8.60
2023-09-06T06:15:16.368Z,9.43
2023-09-06T06:17:43.677Z,8.10
2023-09-06T06:20:12.302Z,8.87
2023-09-06T06:22:40.941Z,8.50
2023-09-06T06:25:11.834Z,8.40
2023-09-06T06:27:39.286Z,7.97
2023-09-06T06:30:10.025Z,9.20
2023-09-06T06:32:37.404Z,8.77
2023-09-06T06:35:07.778Z,8.77
2023-09-06T06:37:35.600Z,9.50
2023-09-06T06:40:03.664Z,10.10
2023-09-06T06:42:30.812Z,8.20
2023-09-06T06:44:57.946Z,9.40
2023-09-06T06:47:25.110Z,9.53
2023-09-06T06:49:52.736Z,8.43
2023-09-06T06:52:19.982Z,8.00
2023-09-06T06:54:50.212Z,8.93
2023-09-06T06:57:17.388Z,8.30
2023-09-06T06:59:45.813Z,8.23
2023-09-06T07:02:14.445Z,8.27
2023-09-06T07:04:41.675Z,8.97
2023-09-06T07:07:09.080Z,9.40
2023-09-06T07:09:36.314Z,7.90
2023-09-06T07:12:03.443Z,9.20
2023-09-06T07:14:30.604Z,7.67
2023-09-06T07:16:59.985Z,8.40
2023-09-06T07:19:27.176Z,9.03
2023-09-06T07:21:55.443Z,7.77
2023-09-06T07:24:22.612Z,8.80
2023-09-06T07:26:49.789Z,9.03
2023-09-06T07:29:18.879Z,7.70
2023-09-06T07:31:46.452Z,8.80
2023-09-06T07:34:13.647Z,8.73
2023-09-06T07:36:40.733Z,7.57
2023-09-06T07:39:09.197Z,8.23
2023-09-06T07:41:36.301Z,8.77
2023-09-06T07:44:03.531Z,8.13
2023-09-06T07:46:32.080Z,7.50
2023-09-06T07:48:59.461Z,8.33
2023-09-06T07:51:26.714Z,7.73
2023-09-06T07:53:54.927Z,7.43
2023-09-06T07:56:22.212Z,7.27
2023-09-06T07:58:49.460Z,7.40
2023-09-06T08:01:19.641Z,7.77
2023-09-06T08:03:48.493Z,7.83
2023-09-06T08:06:16.457Z,7.20
2023-09-06T08:08:44.647Z,7.80
2023-09-06T08:11:11.916Z,8.53
2023-09-06T08:13:39.108Z,7.37
2023-09-06T08:16:06.875Z,8.10
2023-09-06T08:18:34.596Z,9.23
2023-09-06T08:21:02.251Z,8.03
2023-09-06T08:23:29.601Z,7.40
2023-09-06T08:25:58.444Z,7.87
2023-09-06T08:28:25.726Z,7.33
2023-09-06T08:30:53.083Z,7.60
2023-09-06T08:33:20.474Z,7.47
2023-09-06T08:35:47.759Z,7.60
2023-09-06T08:38:14.965Z,7.20
2023-09-06T08:40:42.122Z,7.50
2023-09-06T08:43:12.385Z,7.80
2023-09-06T08:45:39.694Z,7.80
2023-09-06T08:48:07.118Z,7.73
2023-09-06T08:50:34.942Z,7.30
2023-09-06T08:53:02.113Z,7.20
2023-09-06T08:55:29.534Z,7.87
2023-09-06T08:57:57.576Z,8.00
2023-09-06T09:00:25.160Z,7.87
2023-09-06T09:02:53.213Z,7.60
2023-09-06T09:05:21.992Z,7.83
2023-09-06T09:07:51.051Z,8.03
2023-09-06T09:10:18.400Z,6.53
2023-09-06T09:12:45.641Z,8.13
2023-09-06T09:15:23.514Z,7.30
2023-09-06T09:17:59.446Z,7.03
2023-09-06T09:20:28.895Z,8.13
2023-09-06T09:22:59.927Z,7.27
2023-09-06T09:25:27.234Z,7.17
2023-09-06T09:27:57.642Z,7.50
2023-09-06T09:30:25.690Z,7.27
2023-09-06T09:33:00.021Z,7.17
2023-09-06T09:35:27.859Z,7.10
2023-09-06T09:37:57.332Z,6.87
2023-09-06T09:43:03.285Z,7.20
2023-09-06T09:45:30.471Z,7.00
2023-09-06T09:47:58.504Z,7.03
2023-09-06T09:50:30.834Z,7.20
2023-09-06T09:53:07.982Z,6.83
2023-09-06T09:55:42.775Z,7.23
2023-09-06T09:58:11.272Z,7.40
2023-09-06T10:00:40.410Z,7.03
2023-09-06T10:03:09.611Z,7.03
2023-09-06T10:05:37.255Z,6.57
2023-09-06T10:08:27.050Z,6.77
2023-09-06T10:10:54.194Z,6.13
2023-09-06T10:13:27.409Z,6.57
2023-09-06T10:15:55.133Z,5.43
2023-09-06T10:18:22.414Z,6.00
2023-09-06T10:20:49.601Z,6.63
2023-09-06T10:23:16.723Z,6.10
2023-09-06T10:25:47.291Z,5.80
2023-09-06T10:28:15.667Z,5.67
2023-09-06T10:30:45.963Z,5.73
2023-09-06T10:33:34.891Z,5.30
2023-09-06T10:36:04.534Z,6.33
2023-09-06T10:38:31.980Z,5.67
2023-09-06T10:40:59.175Z,5.67
2023-09-06T10:46:55.949Z,6.43
2023-09-06T10:49:27.666Z,5.90
2023-09-06T10:52:02.055Z,6.77
2023-09-06T10:54:35.990Z,6.73
2023-09-06T10:57:06.921Z,6.30
2023-09-06T10:59:37.539Z,5.40
2023-09-06T11:02:11.041Z,5.90
2023-09-06T11:04:38.488Z,6.80
2023-09-06T11:07:11.110Z,4.77
2023-09-06T11:09:45.064Z,4.87
2023-09-06T11:12:15.525Z,5.50
2023-09-06T11:14:48.960Z,5.33
2023-09-06T11:17:25.761Z,6.00
2023-09-06T11:19:53.146Z,5.77
2023-09-06T11:22:20.942Z,5.13
2023-09-06T11:24:49.719Z,5.80
2023-09-06T11:27:18.569Z,5.60
2023-09-06T11:29:45.743Z,6.20
2023-09-06T11:32:13.221Z,5.83
2023-09-06T11:34:45.145Z,5.30
2023-09-06T11:37:14.378Z,5.83
2023-09-06T11:39:41.647Z,5.80
2023-09-06T11:42:12.119Z,5.53
2023-09-06T11:44:44.361Z,5.97
2023-09-06T11:47:11.987Z,5.57
2023-09-06T11:49:41.592Z,5.93
2023-09-06T11:52:08.803Z,5.10
2023-09-06T11:54:39.956Z,5.20
2023-09-06T11:57:09.767Z,5.40
2023-09-06T11:59:38.297Z,5.40
2023-09-06T12:02:07.092Z,5.10
2023-09-06T12:04:35.916Z,4.70
2023-09-06T12:07:08.420Z,4.97
2023-09-06T12:09:37.691Z,4.83
2023-09-06T12:12:08.171Z,5.73
2023-09-06T12:14:35.719Z,4.80
2023-09-06T12:17:03.372Z,5.00
2023-09-06T12:19:30.648Z,5.70
2023-09-06T12:21:57.777Z,5.20
2023-09-06T12:24:25.299Z,5.10
2023-09-06T12:26:52.426Z,4.80
2023-09-06T12:29:21.308Z,4.90
2023-09-06T12:31:50.813Z,5.13
2023-09-06T12:34:18.081Z,5.30
2023-09-06T12:36:45.197Z,4.83
2023-09-06T12:39:12.746Z,4.70
2023-09-06T12:41:40.028Z,4.90
2023-09-06T12:44:07.630Z,4.57
2023-09-06T12:46:35.268Z,4.33
2023-09-06T12:49:02.775Z,4.80
2023-09-06T12:51:29.954Z,4.37
2023-09-06T12:53:57.106Z,4.23
2023-09-06T12:56:24.371Z,5.47
2023-09-06T12:58:51.480Z,3.80
2023-09-06T13:01:18.682Z,4.97
2023-09-06T13:03:46.793Z,4.33
2023-09-06T13:06:14.270Z,4.30
2023-09-06T13:08:43.006Z,4.50
2023-09-06T13:11:10.588Z,4.13
2023-09-06T13:13:38.137Z,3.70
2023-09-06T13:16:07.530Z,4.30
2023-09-06T13:18:35.208Z,4.23
2023-09-06T13:21:06.713Z,4.17
2023-09-06T13:23:34.526Z,4.53
2023-09-06T13:26:01.827Z,4.17
2023-09-06T13:28:29.156Z,3.80
2023-09-06T13:30:56.621Z,3.70
2023-09-06T13:33:23.908Z,3.80
2023-09-06T13:35:51.116Z,3.90
2023-09-06T13:38:18.259Z,4.17
2023-09-06T13:40:45.661Z,4.20
2023-09-06T13:43:12.899Z,3.33
2023-09-06T13:45:41.352Z,3.80
2023-09-06T13:48:10.449Z,4.23
2023-09-06T13:50:37.846Z,4.00
2023-09-06T13:53:05.027Z,4.20
2023-09-06T13:55:32.674Z,4.13
2023-09-06T13:57:59.892Z,3.73
2023-09-06T14:00:27.146Z,3.73
2023-09-06T14:02:54.365Z,3.50
2023-09-06T14:05:21.655Z,4.00
2023-09-06T14:07:49.793Z,3.67
2023-09-06T14:10:17.129Z,3.60
2023-09-06T14:16:08.003Z,3.30
2023-09-06T14:18:35.187Z,4.00
2023-09-06T14:21:02.368Z,3.90
2023-09-06T14:23:29.514Z,4.07
2023-09-06T14:25:57.167Z,4.10
2023-09-06T14:28:24.352Z,3.83
2023-09-06T14:30:51.575Z,3.30
2023-09-06T14:33:18.749Z,3.67
2023-09-06T14:35:46.292Z,3.20
2023-09-06T14:38:15.570Z,3.00
2023-09-06T14:40:43.431Z,3.80
2023-09-06T14:43:10.709Z,3.30
2023-09-06T14:49:07.954Z,3.00
2023-09-06T14:55:05.360Z,3.23
2023-09-06T14:57:32.617Z,3.17
2023-09-06T14:59:59.912Z,3.27
2023-09-06T15:02:27.214Z,3.33
2023-09-06T15:04:54.507Z,3.20
2023-09-06T15:07:21.640Z,3.20
2023-09-06T15:09:51.121Z,3.17
2023-09-06T15:12:18.355Z,2.73
2023-09-06T15:14:45.582Z,3.13
2023-09-06T15:17:12.707Z,3.23
2023-09-06T15:19:40.894Z,2.67
2023-09-06T15:22:07.989Z,3.33
2023-09-06T15:24:35.125Z,3.60
2023-09-06T15:27:02.261Z,3.10
2023-09-06T15:29:29.469Z,2.73
2023-09-06T15:31:56.713Z,2.70
2023-09-06T15:34:25.037Z,2.87
2023-09-06T15:36:53.939Z,3.00
2023-09-06T15:39:21.102Z,2.50
2023-09-06T15:41:48.408Z,2.33
2023-09-06T15:44:17.178Z,2.60
2023-09-06T15:46:44.340Z,2.93
2023-09-06T15:49:11.666Z,2.70
2023-09-06T15:51:38.881Z,2.60
2023-09-06T15:54:06.171Z,2.97
2023-09-06T15:56:33.383Z,2.73
2023-09-06T15:59:00.567Z,2.60
2023-09-06T16:01:30.269Z,2.80
2023-09-06T16:03:58.944Z,2.63
2023-09-06T16:06:27.043Z,2.33
2023-09-06T16:08:54.247Z,2.30
2023-09-06T16:11:21.384Z,2.30
2023-09-06T16:13:48.587Z,2.27
2023-09-06T16:16:15.659Z,2.10
2023-09-06T16:18:43.223Z,1.87
2023-09-06T16:21:10.379Z,2.20
2023-09-06T16:23:37.546Z,1.83
2023-09-06T16:26:08.003Z,2.40
2023-09-06T16:28:35.089Z,1.73
2023-09-06T16:31:02.252Z,1.73
2023-09-06T16:33:29.812Z,1.90
2023-09-06T16:35:56.939Z,1.80
2023-09-06T16:38:24.176Z,1.53
2023-09-06T16:40:51.286Z,2.07
2023-09-06T16:43:18.461Z,1.93
2023-09-06T16:45:45.617Z,1.80
2023-09-06T16:48:12.910Z,1.93
2023-09-06T16:50:41.290Z,1.77
2023-09-06T16:53:08.453Z,1.93
2023-09-06T16:55:35.649Z,1.90
2023-09-06T16:58:08.136Z,1.77
2023-09-06T17:00:35.717Z,1.97
2023-09-06T17:03:02.891Z,1.70
2023-09-06T17:05:30.035Z,1.93
2023-09-06T17:07:57.168Z,1.80
2023-09-06T17:10:24.470Z,1.70
2023-09-06T17:12:51.719Z,1.80
2023-09-06T17:15:22.651Z,2.03
2023-09-06T17:17:50.963Z,1.53
2023-09-06T17:20:18.676Z,2.00
2023-09-06T17:22:46.385Z,1.63
2023-09-06T17:26:09.873Z,1.77
2023-09-06T17:28:37.054Z,1.40
2023-09-06T17:31:05.214Z,1.90
2023-09-06T17:33:32.464Z,3.17
2023-09-06T17:35:59.642Z,1.70
2023-09-06T17:38:26.753Z,2.00
2023-09-06T17:40:54.679Z,1.60
2023-09-06T17:43:23.496Z,1.87
2023-09-06T17:45:51.834Z,1.90
2023-09-06T17:48:20.265Z,2.10
2023-09-06T17:50:52.522Z,1.63
2023-09-06T17:53:21.334Z,2.10
2023-09-06T17:55:49.897Z,2.20
2023-09-06T17:58:18.196Z,2.33
2023-09-06T18:00:46.133Z,2.20
2023-09-06T18:03:19.072Z,1.67
2023-09-06T18:05:59.039Z,2.20
2023-09-06T18:08:26.889Z,1.93
2023-09-06T18:10:54.157Z,2.07
2023-09-06T18:13:21.692Z,1.97
2023-09-06T18:15:50.263Z,2.00
2023-09-06T18:18:18.028Z,1.87
2023-09-06T18:20:45.359Z,2.07
2023-09-06T18:23:13.738Z,2.10
2023-09-06T18:25:41.486Z,2.00
2023-09-06T18:28:09.635Z,1.80
2023-09-06T18:30:44.859Z,2.30
2023-09-06T18:33:12.127Z,2.27
2023-09-06T18:35:39.968Z,2.30
2023-09-06T18:38:08.206Z,1.90
2023-09-06T18:40:35.530Z,2.07
2023-09-06T18:43:03.513Z,3.93
2023-09-06T18:45:31.741Z,16.83
2023-09-06T18:47:59.074Z,14.23
2023-09-06T18:50:26.353Z,8.93
2023-09-06T18:52:53.551Z,7.30
2023-09-06T18:55:21.099Z,6.30
2023-09-06T18:57:59.665Z,3.50
2023-09-06T19:00:34.021Z,2.83
2023-09-06T19:03:02.419Z,3.40
2023-09-06T19:05:29.711Z,7.73
2023-09-06T19:07:56.983Z,15.47
2023-09-06T19:10:24.179Z,30.17
2023-09-06T19:12:52.639Z,38.70
2023-09-06T19:15:20.855Z,38.20
2023-09-06T19:17:49.492Z,34.07
2023-09-06T19:20:17.202Z,24.80
2023-09-06T19:22:44.463Z,20.70
2023-09-06T19:25:12.639Z,16.90
2023-09-06T19:27:40.259Z,15.10
2023-09-06T19:30:07.910Z,12.30
2023-09-06T19:33:12.609Z,9.93
2023-09-06T19:35:39.933Z,9.97
2023-09-06T19:38:07.214Z,8.40
2023-09-06T19:40:34.407Z,8.83
2023-09-06T19:43:01.575Z,8.70
2023-09-06T19:45:28.749Z,7.70
2023-09-06T19:47:55.967Z,9.30
2023-09-06T19:50:23.271Z,8.23
2023-09-06T19:52:54.780Z,7.73
2023-09-06T19:55:23.339Z,8.20
2023-09-06T19:57:52.757Z,7.43
2023-09-06T20:00:22.472Z,5.90
2023-09-06T20:02:50.007Z,5.67
2023-09-06T20:05:17.487Z,4.80
2023-09-06T20:07:44.806Z,3.90
2023-09-06T20:10:12.577Z,6.00
2023-09-06T20:12:39.805Z,6.17
2023-09-06T20:15:07.343Z,5.50
2023-09-06T20:17:34.705Z,5.37
2023-09-06T20:20:02.087Z,4.90
2023-09-06T20:22:29.365Z,5.07
2023-09-06T20:24:57.027Z,5.00
2023-09-06T20:27:24.218Z,4.97
2023-09-06T20:29:51.843Z,5.17
2023-09-06T20:32:19.010Z,5.90
2023-09-06T20:34:46.294Z,5.60
2023-09-06T20:37:13.453Z,6.20
2023-09-06T20:39:40.588Z,6.53
2023-09-06T20:42:07.827Z,6.97
2023-09-06T20:44:55.657Z,7.40
2023-09-06T20:47:23.004Z,7.70
2023-09-06T20:49:55.797Z,7.27
2023-09-06T20:52:23.141Z,6.43
2023-09-06T20:54:50.384Z,6.30
2023-09-06T20:57:17.968Z,5.80
2023-09-06T20:59:45.172Z,6.03
2023-09-06T21:02:12.940Z,6.20
2023-09-06T21:04:40.207Z,6.33
2023-09-06T21:07:08.086Z,5.47
2023-09-06T21:09:35.407Z,6.27
2023-09-06T21:12:02.538Z,5.70
2023-09-06T21:14:30.017Z,6.10
2023-09-06T21:16:57.671Z,6.00
2023-09-06T21:19:25.118Z,5.90
2023-09-06T21:21:52.254Z,6.90
2023-09-06T21:24:19.508Z,5.53
2023-09-06T21:26:46.705Z,5.77
2023-09-06T21:29:27.408Z,5.60
2023-09-06T21:31:55.536Z,5.83
2023-09-06T21:34:35.209Z,6.40
2023-09-06T21:37:34.992Z,7.17
2023-09-06T21:40:04.785Z,7.23
2023-09-06T21:42:32.117Z,7.20
2023-09-06T21:44:59.316Z,8.50
2023-09-06T21:47:26.502Z,7.40
2023-09-06T21:49:53.712Z,6.23
2023-09-06T21:52:21.242Z,6.70
2023-09-06T21:54:48.424Z,6.23
2023-09-06T21:57:15.593Z,6.50
2023-09-06T21:59:42.774Z,5.97
2023-09-06T22:02:09.929Z,6.10
2023-09-06T22:04:37.285Z,5.37
2023-09-06T22:07:04.576Z,6.10
2023-09-06T22:09:31.864Z,5.00
2023-09-06T22:11:59.231Z,5.27
2023-09-06T22:14:26.345Z,5.40
2023-09-06T22:16:53.524Z,5.10
2023-09-06T22:19:20.739Z,5.00
2023-09-06T22:21:47.882Z,5.13
2023-09-06T22:24:15.059Z,4.87
2023-09-06T22:26:43.523Z,4.87
2023-09-06T22:29:10.728Z,4.47
2023-09-06T22:31:37.951Z,4.00
2023-09-06T22:34:05.407Z,4.70
2023-09-06T22:36:32.624Z,4.40
2023-09-06T22:38:59.759Z,4.33
2023-09-06T22:41:26.908Z,4.93
2023-09-06T22:43:54.076Z,4.77
2023-09-06T22:46:21.434Z,4.63
2023-09-06T22:48:54.852Z,5.07
2023-09-06T22:51:22.834Z,4.70
2023-09-06T22:53:50.060Z,4.80
2023-09-06T22:56:17.324Z,4.80
2023-09-06T22:58:44.500Z,5.20
2023-09-06T23:01:12.401Z,4.90
2023-09-06T23:03:43.415Z,4.33
2023-09-06T23:06:11.501Z,4.90
2023-09-06T23:08:39.795Z,4.90
2023-09-06T23:11:07.706Z,4.53
2023-09-06T23:13:35.958Z,5.20
2023-09-06T23:16:04.274Z,4.90
2023-09-06T23:18:32.752Z,4.97
2023-09-06T23:21:06.208Z,5.27
2023-09-06T23:23:34.605Z,5.10
2023-09-06T23:26:05.539Z,5.47
2023-09-06T23:28:35.656Z,5.13
2023-09-06T23:31:06.762Z,6.00
2023-09-06T23:33:41.215Z,5.73
2023-09-06T23:36:10.124Z,5.10
2023-09-06T23:38:37.559Z,5.67
2023-09-06T23:41:05.058Z,5.60
2023-09-06T23:43:35.496Z,4.97
2023-09-06T23:46:02.872Z,4.80
2023-09-06T23:48:30.211Z,4.93
2023-09-06T23:51:00.590Z,5.63
2023-09-06T23:53:27.812Z,6.30
2023-09-06T23:55:57.968Z,5.30
2023-09-06T23:58:25.275Z,5.37
